Hlavní strana
METAR-TAF:

METAR-TAF

Letiště :

Sylacauga, Alabama, Spojené státy americké

zeměpisná šířka: 33-10-19N, zeměpisná délka: 086-18-20W, výška: 173 m

Aktuální stav počasí

Zpráva byla vytvořena před 15 minutami, v 17:35 UTC
Severní vítr 4 kt
Teplota 6°C
Vlhkost vzduchu 93%
Tlak 1023 hPa
Viditelnost: 8.0 km
Polojasno ve výšce 2700 ft
Oblačno až skoro zataženo ve výšce 6500 ft
Zataženo ve výšce 7500 ft
slabý déšť

METAR: KSCD 151735Z AUTO 01004KT 5SM -RA SCT027 BKN065 OVC075 06/05 A3020 RMK AO2 P0005 T00600050

Čas: 11:50 (17:50 UTC)


TAF: chybějící

Stav a předpovědi počasí z více než 4 000 letišť (zprávy METAR a TAF).

Červené a žluté tečky na mapě představují dostupné meteorologické stanice.

Když kurzor umístíte na tečku, zobrazí se název stanice.

Pak kliknutím zobrazíte stav a předpověď počasí.

Chcete-li změnit mapu, kliknutím na zelené tlačítko se znaménkem +mapu přiblížíte, kliknutím na zelené tlačítko se znaménkem – mapu oddálíte a kliknutím na zelené šipky přejdete na sousední mapy.


METAR-TAF: